TAF

Aerodrome Forecast TAF

TAF description (Slovak)

23.01.2020 - 08:00 UTC

TAF LZSL 230800Z 2309/2318 VRB02KT CAVOK
    BECMG 2315/2317 9999 SCT020=
TAF LZPP 230800Z 2309/2318 01005KT CAVOK=
TAF LZZI 230800Z 2309/2318 VRB02KT 9999 BR BKN035
    PROB40 TEMPO 2309/2310 2000 BR BKN002
    BECMG 2310/2312 CAVOK=

23.01.2020 - 05:00 UTC

TAF AMD LZZI 230631Z 2306/2315 VRB02KT 5000 BR BKN035
    TEMPO 2306/2309 2000 BR BKN002
    BECMG 2310/2312 CAVOK=

23.01.2020 - 05:00 UTC

TAF LZIB 230500Z 2306/2406 30010KT 9999 SCT040
    PROB40 TEMPO 2306/2308 VRB02KT 3500 BCFG SCT002
    BECMG 2308/2310 20005KT CAVOK
    BECMG 2313/2315 12005KT
    BECMG 2318/2320 9999 FEW006 SCT020
    TEMPO 2319/2406 2500 BR BKN006=
TAF LZKZ 230500Z 2306/2406 VRB02KT 9999 BKN045
    BECMG 2308/2310 20006KT CAVOK
    BECMG 2317/2319 3000 BR SCT003
    TEMPO 2323/2406 1000 BCFG BKN002=
TAF LZTT 230500Z 2306/2406 25005KT 9999 FEW045
    PROB40 TEMPO 2306/2307 1200 BCFG SCT002
    BECMG 2307/2309 CAVOK
    BECMG 2323/2401 16004KT=

23.01.2020 - 05:00 UTC

TAF LZSL 230500Z 2306/2315 VRB02KT 9999 SCT045=
TAF LZPP 230500Z 2306/2315 01005KT 9999 SCT040=
TAF LZZI 230500Z 2306/2315 VRB02KT 5000 BR BKN035
    TEMPO 2306/2309 2000 BR
    BECMG 2310/2312 CAVOK=

23.01.2020 - 02:00 UTC

TAF LZSL 230200Z 2303/2312 VRB02KT 9999 SCT050
    PROB30 TEMPO 2303/2307 3500 BR=
TAF LZZI 230200Z 2303/2312 VRB02KT 5000 BR BKN050
    TEMPO 2303/2308 2000 BR
    PROB30 TEMPO 2303/2307 1200 BR BCFG BKN004
    BECMG 2309/2311 CAVOK=

skok na menu ↑


skok na začiatok stránky ↑